createdAt,value
2018-02-22T00:00:50.317Z,80.20
2018-02-22T00:03:17.900Z,80.10
2018-02-22T00:05:46.315Z,80.00
2018-02-22T00:08:14.740Z,79.70
2018-02-22T00:10:42.325Z,79.60
2018-02-22T00:13:09.967Z,79.20
2018-02-22T00:15:37.526Z,79.30
2018-02-22T00:18:05.132Z,79.00
2018-02-22T00:20:36.518Z,79.40
2018-02-22T00:23:04.137Z,79.20
2018-02-22T00:25:32.497Z,78.90
2018-02-22T00:28:00.125Z,78.40
2018-02-22T00:30:27.718Z,78.20
2018-02-22T00:32:55.311Z,78.80
2018-02-22T00:35:23.901Z,78.40
2018-02-22T00:37:52.225Z,78.50
2018-02-22T00:40:19.782Z,78.50
2018-02-22T00:42:47.411Z,78.10
2018-02-22T00:45:15.843Z,78.50
2018-02-22T00:47:43.507Z,78.60
2018-02-22T00:50:11.112Z,78.60
2018-02-22T00:52:38.728Z,78.60
2018-02-22T00:55:06.326Z,78.40
2018-02-22T00:57:33.993Z,78.20
2018-02-22T01:00:01.587Z,78.40
2018-02-22T01:02:29.444Z,78.40
2018-02-22T01:04:57.057Z,78.70
2018-02-22T01:07:24.691Z,78.30
2018-02-22T01:09:52.277Z,78.20
2018-02-22T01:12:19.905Z,77.90
2018-02-22T01:14:48.906Z,78.40
2018-02-22T01:17:16.499Z,78.70
2018-02-22T01:19:44.139Z,78.60
2018-02-22T01:22:11.711Z,78.50
2018-02-22T01:24:39.309Z,78.40
2018-02-22T01:27:07.643Z,78.70
2018-02-22T01:29:35.209Z,78.60
2018-02-22T01:32:02.782Z,78.20
2018-02-22T01:34:30.332Z,78.40
2018-02-22T01:36:57.869Z,78.50
2018-02-22T01:39:26.311Z,78.80
2018-02-22T01:41:53.873Z,78.50
2018-02-22T01:44:21.468Z,78.50
2018-02-22T01:46:49.043Z,78.20
2018-02-22T01:49:16.673Z,78.70
2018-02-22T01:51:44.194Z,79.60
2018-02-22T01:54:11.850Z,78.70
2018-02-22T01:56:39.426Z,78.70
2018-02-22T01:59:07.039Z,78.80
2018-02-22T02:01:34.571Z,79.10
2018-02-22T02:04:02.577Z,79.00
2018-02-22T02:06:30.888Z,79.20
2018-02-22T02:08:58.462Z,78.80
2018-02-22T02:11:25.989Z,78.90
2018-02-22T02:13:53.542Z,79.20
2018-02-22T02:16:21.109Z,79.40
2018-02-22T02:18:48.690Z,78.70
2018-02-22T02:21:16.278Z,78.30
2018-02-22T02:23:44.973Z,78.70
2018-02-22T02:26:13.336Z,78.40
2018-02-22T02:28:40.903Z,78.70
2018-02-22T02:31:08.439Z,78.90
2018-02-22T02:33:35.995Z,78.80
2018-02-22T02:36:03.530Z,79.00
2018-02-22T02:38:31.851Z,79.50
2018-02-22T02:40:59.378Z,79.30
2018-02-22T02:43:26.964Z,79.20
2018-02-22T02:45:55.243Z,79.30
2018-02-22T02:48:22.794Z,79.20
2018-02-22T02:50:50.311Z,79.20
2018-02-22T02:53:18.643Z,80.30
2018-02-22T02:55:46.154Z,79.60
2018-02-22T02:58:13.710Z,80.00
2018-02-22T03:00:41.220Z,79.30
2018-02-22T03:03:08.773Z,79.40
2018-02-22T03:05:36.292Z,79.80
2018-02-22T03:08:04.626Z,80.50
2018-02-22T03:10:32.181Z,80.50
2018-02-22T03:12:59.708Z,80.00
2018-02-22T03:15:27.271Z,80.00
2018-02-22T03:17:54.833Z,80.40
2018-02-22T03:20:22.352Z,80.20
2018-02-22T03:22:49.973Z,80.50
2018-02-22T03:25:17.495Z,80.10
2018-02-22T03:27:45.062Z,80.50
2018-02-22T03:30:12.591Z,80.80
2018-02-22T03:32:40.174Z,80.70
2018-02-22T03:35:08.478Z,80.90
2018-02-22T03:37:36.024Z,80.90
2018-02-22T03:40:03.553Z,80.80
2018-02-22T03:42:31.100Z,81.00
2018-02-22T03:44:58.625Z,81.00
2018-02-22T03:47:26.138Z,81.40
2018-02-22T03:49:54.476Z,81.50
2018-02-22T03:52:21.993Z,81.50
2018-02-22T03:54:49.547Z,81.70
2018-02-22T03:57:17.281Z,81.50
2018-02-22T03:59:44.833Z,81.40
2018-02-22T04:02:12.385Z,81.80
2018-02-22T04:04:39.930Z,81.90
2018-02-22T04:07:07.451Z,82.00
2018-02-22T04:09:35.007Z,81.90
2018-02-22T04:12:02.548Z,82.00
2018-02-22T04:14:30.103Z,82.50
2018-02-22T04:16:57.667Z,82.50
2018-02-22T04:19:25.968Z,82.30
2018-02-22T04:21:53.540Z,82.20
2018-02-22T04:24:21.053Z,81.80
2018-02-22T04:26:48.617Z,82.30
2018-02-22T04:29:16.139Z,82.50
2018-02-22T04:31:43.689Z,82.40
2018-02-22T04:34:11.253Z,82.60
2018-02-22T04:36:38.768Z,82.70
2018-02-22T04:39:07.104Z,82.60
2018-02-22T04:41:34.625Z,82.50
2018-02-22T04:44:02.632Z,82.70
2018-02-22T04:46:30.144Z,82.70
2018-02-22T04:48:57.715Z,82.70
2018-02-22T04:51:25.248Z,82.80
2018-02-22T04:53:53.570Z,82.90
2018-02-22T04:56:21.091Z,82.80
2018-02-22T04:58:48.652Z,82.60
2018-02-22T05:01:16.191Z,82.80
2018-02-22T05:03:43.736Z,83.00
2018-02-22T05:06:11.323Z,82.90
2018-02-22T05:08:39.638Z,82.80
2018-02-22T05:11:07.157Z,82.70
2018-02-22T05:13:34.723Z,82.70
2018-02-22T05:16:03.012Z,82.50
2018-02-22T05:18:30.565Z,82.50
2018-02-22T05:20:58.849Z,82.50
2018-02-22T05:23:27.169Z,82.50
2018-02-22T05:25:54.675Z,82.40
2018-02-22T05:28:22.987Z,82.40
2018-02-22T05:30:50.541Z,82.40
2018-02-22T05:33:18.104Z,82.20
2018-02-22T05:35:45.743Z,82.10
2018-02-22T05:38:13.305Z,82.40
2018-02-22T05:40:40.833Z,82.00
2018-02-22T05:43:08.392Z,82.20
2018-02-22T05:45:35.943Z,81.90
2018-02-22T05:48:03.532Z,81.60
2018-02-22T05:50:31.919Z,81.30
2018-02-22T05:52:59.493Z,81.60
2018-02-22T05:55:27.011Z,81.50
2018-02-22T05:57:54.585Z,81.60
2018-02-22T06:00:22.664Z,82.10
2018-02-22T06:02:50.217Z,81.90
2018-02-22T06:05:18.558Z,81.50
2018-02-22T06:07:46.110Z,81.50
2018-02-22T06:10:13.625Z,81.40
2018-02-22T06:12:41.176Z,81.20
2018-02-22T06:15:09.746Z,80.80
2018-02-22T06:17:37.313Z,80.80
2018-02-22T06:20:04.843Z,81.00
2018-02-22T06:22:32.402Z,80.60
2018-02-22T06:24:59.953Z,79.70
2018-02-22T06:27:27.513Z,79.90
2018-02-22T06:29:55.033Z,80.80
2018-02-22T06:32:22.625Z,79.70
2018-02-22T06:34:50.180Z,79.60
2018-02-22T06:37:18.229Z,79.70
2018-02-22T06:39:45.742Z,79.20
2018-02-22T06:42:13.293Z,79.40
2018-02-22T06:44:40.869Z,78.10
2018-02-22T06:47:08.393Z,78.80
2018-02-22T06:49:35.950Z,78.40
2018-02-22T06:52:03.504Z,78.00
2018-02-22T06:54:31.088Z,77.60
2018-02-22T06:56:58.643Z,78.10
2018-02-22T06:59:26.225Z,78.40
2018-02-22T07:01:53.774Z,78.30
2018-02-22T07:04:21.324Z,77.50
2018-02-22T07:06:48.855Z,78.00
2018-02-22T07:09:16.407Z,76.60
2018-02-22T07:11:43.928Z,75.50
2018-02-22T07:14:11.482Z,76.40
2018-02-22T07:16:39.019Z,76.40
2018-02-22T07:19:06.644Z,76.10
2018-02-22T07:21:34.203Z,75.60
2018-02-22T07:24:01.797Z,75.40
2018-02-22T07:26:29.335Z,75.30
2018-02-22T07:28:56.878Z,75.50
2018-02-22T07:31:24.443Z,75.10
2018-02-22T07:33:51.984Z,74.20
2018-02-22T07:36:20.274Z,74.10
2018-02-22T07:38:47.834Z,74.00
2018-02-22T07:41:15.355Z,74.50
2018-02-22T07:43:42.913Z,74.00
2018-02-22T07:46:10.433Z,74.20
2018-02-22T07:48:37.991Z,73.50
2018-02-22T07:51:05.522Z,73.20
2018-02-22T07:53:33.083Z,73.30
2018-02-22T07:56:00.643Z,73.40
2018-02-22T07:58:28.173Z,73.40
2018-02-22T08:00:56.525Z,74.50
2018-02-22T08:03:24.081Z,74.30
2018-02-22T08:05:51.628Z,73.60
2018-02-22T08:08:19.199Z,73.80
2018-02-22T08:10:46.720Z,73.30
2018-02-22T08:13:15.052Z,72.50
2018-02-22T08:15:42.915Z,72.50
2018-02-22T08:18:10.468Z,73.20
2018-02-22T08:20:38.033Z,72.90
2018-02-22T08:23:05.597Z,73.30
2018-02-22T08:25:33.125Z,73.10
2018-02-22T08:28:00.693Z,73.20
2018-02-22T08:30:28.198Z,73.70
2018-02-22T08:32:56.516Z,73.30
2018-02-22T08:35:24.066Z,73.40
2018-02-22T08:37:51.620Z,74.00
2018-02-22T08:40:19.140Z,74.00
2018-02-22T08:42:46.733Z,73.50
2018-02-22T08:45:14.290Z,73.30
2018-02-22T08:47:41.851Z,73.30
2018-02-22T08:50:10.121Z,72.60
2018-02-22T08:52:38.468Z,73.30
2018-02-22T08:55:06.021Z,73.30
2018-02-22T08:57:33.553Z,72.80
2018-02-22T09:00:01.093Z,72.90
2018-02-22T09:02:28.623Z,72.90
2018-02-22T09:04:56.950Z,72.60
2018-02-22T09:07:24.475Z,72.30
2018-02-22T09:09:52.068Z,72.30
2018-02-22T09:12:19.582Z,72.40
2018-02-22T09:14:47.124Z,72.30
2018-02-22T09:17:14.625Z,71.60
2018-02-22T09:19:42.184Z,72.00
2018-02-22T09:22:09.709Z,71.60
2018-02-22T09:24:37.278Z,72.10
2018-02-22T09:27:04.823Z,71.40
2018-02-22T09:29:32.389Z,71.10
2018-02-22T09:32:00.688Z,71.90
2018-02-22T09:34:28.237Z,71.80
2018-02-22T09:36:56.524Z,72.30
2018-02-22T09:39:24.097Z,72.30
2018-02-22T09:41:51.642Z,71.30
2018-02-22T09:44:19.222Z,71.80
2018-02-22T09:46:46.761Z,71.90
2018-02-22T09:49:14.338Z,71.60
2018-02-22T09:51:41.866Z,71.20
2018-02-22T09:54:10.186Z,72.00
2018-02-22T09:56:37.722Z,72.00
2018-02-22T09:59:05.292Z,71.70
2018-02-22T10:01:32.812Z,71.00
2018-02-22T10:04:01.168Z,71.10
2018-02-22T10:06:28.704Z,71.00
2018-02-22T10:08:56.219Z,70.70
2018-02-22T10:11:24.546Z,71.20
2018-02-22T10:13:52.074Z,71.00
2018-02-22T10:16:19.614Z,71.40
2018-02-22T10:18:47.130Z,70.90
2018-02-22T10:21:14.691Z,70.20
2018-02-22T10:23:42.234Z,69.70
2018-02-22T10:26:09.764Z,70.30
2018-02-22T10:28:37.340Z,71.10
2018-02-22T10:31:04.855Z,70.00
2018-02-22T10:33:33.192Z,70.10
2018-02-22T10:36:00.716Z,70.00
2018-02-22T10:38:28.257Z,69.70
2018-02-22T10:40:55.777Z,69.10
2018-02-22T10:43:23.335Z,70.20
2018-02-22T10:45:50.849Z,69.00
2018-02-22T10:48:19.152Z,69.60
2018-02-22T10:50:46.666Z,69.30
2018-02-22T10:53:14.212Z,68.70
2018-02-22T10:55:41.764Z,67.40
2018-02-22T10:58:10.028Z,69.00
2018-02-22T11:00:43.142Z,68.90
2018-02-22T11:03:10.688Z,67.90
2018-02-22T11:05:38.202Z,66.50
2018-02-22T11:08:05.744Z,66.50
2018-02-22T11:10:34.015Z,66.40
2018-02-22T11:13:02.333Z,67.30
2018-02-22T11:15:29.852Z,67.20
2018-02-22T11:17:57.438Z,67.40
2018-02-22T11:20:24.954Z,66.80
2018-02-22T11:22:52.460Z,68.10
2018-02-22T11:25:20.040Z,68.00
2018-02-22T11:27:47.603Z,67.20
2018-02-22T11:30:15.132Z,65.30
2018-02-22T11:32:42.676Z,66.30
2018-02-22T11:35:10.182Z,65.10
2018-02-22T11:37:37.730Z,66.30
2018-02-22T11:40:05.278Z,67.00
2018-02-22T11:42:32.792Z,66.00
2018-02-22T11:45:00.340Z,65.80
2018-02-22T11:47:27.866Z,67.10
2018-02-22T11:49:55.412Z,66.70
2018-02-22T11:52:22.930Z,67.10
2018-02-22T11:54:50.480Z,67.90
2018-02-22T11:57:18.570Z,67.30
2018-02-22T11:59:46.899Z,68.10
2018-02-22T12:02:14.450Z,68.10
2018-02-22T12:04:42.008Z,67.70
2018-02-22T12:07:09.554Z,66.50
2018-02-22T12:09:37.095Z,66.20
2018-02-22T12:12:04.604Z,66.70
2018-02-22T12:14:32.167Z,67.50
2018-02-22T12:16:59.693Z,67.00
2018-02-22T12:19:27.282Z,66.30
2018-02-22T12:21:54.790Z,67.40
2018-02-22T12:24:22.362Z,69.30
2018-02-22T12:26:49.928Z,70.30
2018-02-22T12:29:17.564Z,69.20
2018-02-22T12:31:45.886Z,69.80
2018-02-22T12:34:14.137Z,69.80
2018-02-22T12:36:41.742Z,68.80
2018-02-22T12:39:09.344Z,69.00
2018-02-22T12:41:36.864Z,67.70
2018-02-22T12:44:04.470Z,68.10
2018-02-22T12:46:32.035Z,69.20
2018-02-22T12:48:59.625Z,69.60
2018-02-22T12:51:27.244Z,69.60
2018-02-22T12:53:54.844Z,69.60
2018-02-22T12:56:23.610Z,70.20
2018-02-22T12:58:51.217Z,69.20
2018-02-22T13:01:18.802Z,68.40
2018-02-22T13:03:47.188Z,69.20
2018-02-22T13:06:14.812Z,69.20
2018-02-22T13:08:42.394Z,69.40
2018-02-22T13:11:10.790Z,70.90
2018-02-22T13:13:38.370Z,70.30
2018-02-22T13:16:05.950Z,70.60
2018-02-22T13:18:34.722Z,70.10
2018-02-22T13:21:02.694Z,70.10
2018-02-22T13:23:31.557Z,69.60
2018-02-22T13:26:00.672Z,70.60
2018-02-22T13:28:28.241Z,70.50
2018-02-22T13:30:55.786Z,71.10
2018-02-22T13:33:35.086Z,71.60
2018-02-22T13:36:02.671Z,72.20
2018-02-22T13:38:41.953Z,73.40
2018-02-22T13:41:09.476Z,73.70
2018-02-22T13:43:37.036Z,73.60
2018-02-22T13:46:04.651Z,74.00
2018-02-22T13:48:43.904Z,75.00
2018-02-22T13:51:11.490Z,75.30
2018-02-22T13:53:39.052Z,75.00
2018-02-22T13:56:06.632Z,75.60
2018-02-22T13:58:34.184Z,75.70
2018-02-22T14:04:06.725Z,77.00
2018-02-22T14:06:34.453Z,77.80
2018-02-22T14:09:02.015Z,78.20
2018-02-22T14:11:29.574Z,78.40
2018-02-22T14:13:57.278Z,78.60
2018-02-22T14:16:25.666Z,80.20
2018-02-22T14:18:53.250Z,79.60
2018-02-22T14:21:20.785Z,79.80
2018-02-22T14:23:49.127Z,80.80
2018-02-22T14:26:16.670Z,80.80
2018-02-22T14:28:44.246Z,81.80
2018-02-22T14:31:11.827Z,82.30
2018-02-22T14:33:39.370Z,82.60
2018-02-22T14:36:06.926Z,82.40
2018-02-22T14:38:34.490Z,82.90
2018-02-22T14:41:02.050Z,82.90
2018-02-22T14:43:29.582Z,83.50
2018-02-22T14:45:57.152Z,83.40
2018-02-22T14:48:24.708Z,83.30
2018-02-22T14:50:52.290Z,83.50
2018-02-22T14:53:19.856Z,83.40
2018-02-22T14:55:47.432Z,84.50
2018-02-22T14:58:14.960Z,83.90
2018-02-22T15:00:48.194Z,84.10
2018-02-22T15:03:16.520Z,84.40
2018-02-22T15:05:44.796Z,84.90
2018-02-22T15:08:12.314Z,84.60
2018-02-22T15:10:40.670Z,85.00
2018-02-22T15:13:08.237Z,84.90
2018-02-22T15:15:36.610Z,85.50
2018-02-22T15:18:04.201Z,85.50
2018-02-22T15:20:31.784Z,85.50
2018-02-22T15:22:59.350Z,85.90
2018-02-22T15:25:26.937Z,86.20
2018-02-22T15:27:54.516Z,85.90
2018-02-22T15:30:22.085Z,86.00
2018-02-22T15:32:50.389Z,85.90
2018-02-22T15:35:18.745Z,86.10
2018-02-22T15:37:47.081Z,86.20
2018-02-22T15:40:14.669Z,86.10
2018-02-22T15:42:42.198Z,87.20
2018-02-22T15:45:09.937Z,86.60
2018-02-22T15:47:37.513Z,86.60
2018-02-22T15:50:05.088Z,86.80
2018-02-22T15:52:32.627Z,87.10
2018-02-22T15:55:00.228Z,87.30
2018-02-22T15:57:27.805Z,87.60
2018-02-22T15:59:56.159Z,87.90
2018-02-22T16:02:23.771Z,87.90
2018-02-22T16:04:52.502Z,87.50
2018-02-22T16:07:20.114Z,87.60
2018-02-22T16:09:47.705Z,87.70
2018-02-22T16:12:15.282Z,87.90
2018-02-22T16:14:42.871Z,88.00
2018-02-22T16:17:11.216Z,88.40
2018-02-22T16:19:38.773Z,88.30
2018-02-22T16:22:06.358Z,88.50
2018-02-22T16:24:33.960Z,88.80
2018-02-22T16:27:02.286Z,88.90
2018-02-22T16:29:29.864Z,88.80
2018-02-22T16:31:58.178Z,89.20
2018-02-22T16:34:25.746Z,89.20
2018-02-22T16:36:53.286Z,89.30
2018-02-22T16:39:20.895Z,89.20
2018-02-22T16:41:48.444Z,89.20
2018-02-22T16:44:16.032Z,89.30
2018-02-22T16:46:44.345Z,89.60
2018-02-22T16:49:11.909Z,89.50
2018-02-22T16:51:39.454Z,89.40
2018-02-22T16:54:07.854Z,89.50
2018-02-22T16:56:35.388Z,89.60
2018-02-22T16:59:02.940Z,89.70
2018-02-22T17:01:30.523Z,89.80
2018-02-22T17:03:58.147Z,89.80
2018-02-22T17:06:26.508Z,90.00
2018-02-22T17:08:54.078Z,89.90
2018-02-22T17:11:21.808Z,89.90
2018-02-22T17:13:49.367Z,89.90
2018-02-22T17:16:16.933Z,90.00
2018-02-22T17:18:44.507Z,89.90
2018-02-22T17:21:12.044Z,90.00
2018-02-22T17:23:39.688Z,89.90
2018-02-22T17:26:12.841Z,89.40
2018-02-22T17:28:46.916Z,87.60
2018-02-22T17:31:20.008Z,87.60
2018-02-22T17:33:47.590Z,87.70
2018-02-22T17:36:16.030Z,87.60
2018-02-22T17:38:58.524Z,88.00
2018-02-22T17:41:32.599Z,87.80
2018-02-22T17:44:00.899Z,88.30
2018-02-22T17:46:28.452Z,88.00
2018-02-22T17:48:55.973Z,88.50
2018-02-22T17:51:23.636Z,88.60
2018-02-22T17:53:51.174Z,88.20
2018-02-22T17:56:18.748Z,88.30
2018-02-22T17:58:46.305Z,88.20
2018-02-22T18:01:13.829Z,87.40
2018-02-22T18:03:41.396Z,87.70
2018-02-22T18:06:09.021Z,86.90
2018-02-22T18:08:37.344Z,86.80
2018-02-22T18:11:04.938Z,86.80
2018-02-22T18:13:32.510Z,86.70
2018-02-22T18:16:00.092Z,87.00
2018-02-22T18:18:27.624Z,86.90
2018-02-22T18:20:55.998Z,86.90
2018-02-22T18:23:23.710Z,86.90
2018-02-22T18:25:51.373Z,86.80
2018-02-22T18:28:18.990Z,87.00
2018-02-22T18:30:46.645Z,86.00
2018-02-22T18:33:15.049Z,85.40
2018-02-22T18:35:42.615Z,84.90
2018-02-22T18:38:10.200Z,84.00
2018-02-22T18:40:43.402Z,84.30
2018-02-22T18:43:27.844Z,84.30
2018-02-22T18:45:55.482Z,84.50
2018-02-22T18:48:23.884Z,85.30
2018-02-22T18:50:51.462Z,85.30
2018-02-22T18:53:19.107Z,84.80
2018-02-22T18:55:46.712Z,84.90
2018-02-22T18:58:14.347Z,83.60
2018-02-22T19:00:41.946Z,83.50
2018-02-22T19:03:09.552Z,83.20
2018-02-22T19:05:37.253Z,83.10
2018-02-22T19:08:04.739Z,82.70
2018-02-22T19:10:32.320Z,82.70
2018-02-22T19:12:59.863Z,82.20
2018-02-22T19:15:28.227Z,82.40
2018-02-22T19:17:56.576Z,83.30
2018-02-22T19:20:24.165Z,82.70
2018-02-22T19:22:52.495Z,83.50
2018-02-22T19:25:20.085Z,83.40
2018-02-22T19:27:47.666Z,83.40
2018-02-22T19:30:16.015Z,83.30
2018-02-22T19:32:43.587Z,83.30
2018-02-22T19:35:11.204Z,82.80
2018-02-22T19:37:38.752Z,82.40
2018-02-22T19:40:06.324Z,81.90
2018-02-22T19:42:33.890Z,81.80
2018-02-22T19:45:01.479Z,82.00
2018-02-22T19:47:29.036Z,82.40
2018-02-22T19:49:56.650Z,82.50
2018-02-22T19:52:24.275Z,82.30
2018-02-22T19:54:51.869Z,82.50
2018-02-22T19:57:19.413Z,82.70
2018-02-22T19:59:48.186Z,83.20
2018-02-22T20:02:15.729Z,83.30
2018-02-22T20:04:43.273Z,83.80
2018-02-22T20:07:10.853Z,83.70
2018-02-22T20:09:38.416Z,83.30
2018-02-22T20:12:06.005Z,82.80
2018-02-22T20:14:33.553Z,82.70
2018-02-22T20:17:01.897Z,82.40
2018-02-22T20:19:29.436Z,82.40
2018-02-22T20:21:57.036Z,82.30
2018-02-22T20:24:24.591Z,82.60
2018-02-22T20:26:52.172Z,82.50
2018-02-22T20:29:20.534Z,81.10
2018-02-22T20:31:48.077Z,81.10
2018-02-22T20:34:15.645Z,81.60
2018-02-22T20:36:43.198Z,81.60
2018-02-22T20:39:10.782Z,81.70
2018-02-22T20:41:39.087Z,82.10
2018-02-22T20:44:06.665Z,82.10
2018-02-22T20:46:34.250Z,81.50
2018-02-22T20:49:01.778Z,80.90
2018-02-22T20:51:31.140Z,80.90
2018-02-22T20:53:59.450Z,81.40
2018-02-22T20:56:27.057Z,80.60
2018-02-22T20:58:54.607Z,80.50
2018-02-22T21:01:22.970Z,80.40
2018-02-22T21:03:50.521Z,80.50
2018-02-22T21:06:18.123Z,80.20
2018-02-22T21:08:45.682Z,79.90
2018-02-22T21:11:13.302Z,79.90
2018-02-22T21:13:40.843Z,80.00
2018-02-22T21:16:08.544Z,80.40
2018-02-22T21:18:36.093Z,80.10
2018-02-22T21:21:03.685Z,80.00
2018-02-22T21:23:31.219Z,79.30
2018-02-22T21:25:58.791Z,79.50
2018-02-22T21:28:26.338Z,80.00
2018-02-22T21:30:53.946Z,80.60
2018-02-22T21:33:21.464Z,80.20
2018-02-22T21:35:49.061Z,80.50
2018-02-22T21:38:17.346Z,80.10
2018-02-22T21:40:45.691Z,80.00
2018-02-22T21:43:13.245Z,80.00
2018-02-22T21:45:40.793Z,80.10
2018-02-22T21:48:08.323Z,79.60
2018-02-22T21:50:35.892Z,79.70
2018-02-22T21:53:03.436Z,79.90
2018-02-22T21:55:31.016Z,79.70
2018-02-22T21:57:58.541Z,79.70
2018-02-22T22:00:26.903Z,79.40
2018-02-22T22:02:55.216Z,79.70
2018-02-22T22:05:22.817Z,79.50
2018-02-22T22:07:50.363Z,79.30
2018-02-22T22:10:17.921Z,79.10
2018-02-22T22:12:45.450Z,79.20
2018-02-22T22:15:13.052Z,79.30
2018-02-22T22:17:40.590Z,79.90
2018-02-22T22:20:08.155Z,79.60
2018-02-22T22:22:35.715Z,80.00
2018-02-22T22:25:03.609Z,80.30
2018-02-22T22:27:31.174Z,80.20
2018-02-22T22:29:58.739Z,80.20
2018-02-22T22:32:26.299Z,79.90
2018-02-22T22:34:54.025Z,79.80
2018-02-22T22:37:21.576Z,79.80
2018-02-22T22:39:49.195Z,80.00
2018-02-22T22:42:17.512Z,80.10
2018-02-22T22:44:45.091Z,80.00
2018-02-22T22:47:12.648Z,80.00
2018-02-22T22:49:41.526Z,79.80
2018-02-22T22:52:09.117Z,79.90
2018-02-22T22:54:36.728Z,79.80
2018-02-22T22:57:04.309Z,79.40
2018-02-22T22:59:31.839Z,79.20
2018-02-22T23:01:59.423Z,78.30
2018-02-22T23:04:27.043Z,78.90
2018-02-22T23:06:55.379Z,78.30
2018-02-22T23:09:22.919Z,78.20
2018-02-22T23:11:50.491Z,78.60
2018-02-22T23:14:18.062Z,78.30
2018-02-22T23:16:45.692Z,78.10
2018-02-22T23:19:13.232Z,78.00
2018-02-22T23:21:40.811Z,78.40
2018-02-22T23:24:08.390Z,77.90
2018-02-22T23:26:35.981Z,78.00
2018-02-22T23:29:03.584Z,78.20
2018-02-22T23:31:31.182Z,78.20
2018-02-22T23:33:58.753Z,78.20
2018-02-22T23:36:26.333Z,78.50
2018-02-22T23:38:54.627Z,78.10
2018-02-22T23:41:28.487Z,78.30
2018-02-22T23:43:56.034Z,78.30
2018-02-22T23:46:23.676Z,78.30
2018-02-22T23:48:51.281Z,78.70
2018-02-22T23:51:18.821Z,78.00
2018-02-22T23:53:46.503Z,78.90
2018-02-22T23:56:14.029Z,78.50
2018-02-22T23:58:41.592Z,78.40
